sensor_id;sensor_type;location;lat;lon;timestamp;P1;durP1;ratioP1;P2;durP2;ratioP2
23745;SDS011;12053;48.878;9.632;2023-09-08T00:00:06;5.63;;;4.85;;
23745;SDS011;12053;48.878;9.632;2023-09-08T00:02:35;6.93;;;5.10;;
23745;SDS011;12053;48.878;9.632;2023-09-08T00:05:02;5.90;;;5.15;;
23745;SDS011;12053;48.878;9.632;2023-09-08T00:07:29;5.53;;;4.70;;
23745;SDS011;12053;48.878;9.632;2023-09-08T00:09:57;8.52;;;4.97;;
23745;SDS011;12053;48.878;9.632;2023-09-08T00:12:24;7.63;;;5.32;;
23745;SDS011;12053;48.878;9.632;2023-09-08T00:14:51;6.20;;;5.07;;
23745;SDS011;12053;48.878;9.632;2023-09-08T00:17:18;7.45;;;5.28;;
23745;SDS011;12053;48.878;9.632;2023-09-08T00:19:45;6.18;;;5.35;;
23745;SDS011;12053;48.878;9.632;2023-09-08T00:22:13;5.82;;;5.03;;
23745;SDS011;12053;48.878;9.632;2023-09-08T00:24:40;9.45;;;5.53;;
23745;SDS011;12053;48.878;9.632;2023-09-08T00:27:07;8.27;;;4.88;;
23745;SDS011;12053;48.878;9.632;2023-09-08T00:29:35;7.03;;;4.78;;
23745;SDS011;12053;48.878;9.632;2023-09-08T00:32:03;7.30;;;4.90;;
23745;SDS011;12053;48.878;9.632;2023-09-08T00:34:30;6.55;;;5.13;;
23745;SDS011;12053;48.878;9.632;2023-09-08T00:36:57;6.70;;;5.30;;
23745;SDS011;12053;48.878;9.632;2023-09-08T00:39:26;11.25;;;4.95;;
23745;SDS011;12053;48.878;9.632;2023-09-08T00:41:54;6.20;;;5.07;;
23745;SDS011;12053;48.878;9.632;2023-09-08T00:44:21;8.75;;;5.07;;
23745;SDS011;12053;48.878;9.632;2023-09-08T00:46:48;5.85;;;4.45;;
23745;SDS011;12053;48.878;9.632;2023-09-08T00:49:16;6.38;;;4.75;;
23745;SDS011;12053;48.878;9.632;2023-09-08T00:51:44;6.30;;;4.90;;
23745;SDS011;12053;48.878;9.632;2023-09-08T00:54:11;6.07;;;4.88;;
23745;SDS011;12053;48.878;9.632;2023-09-08T00:56:38;5.60;;;4.50;;
23745;SDS011;12053;48.878;9.632;2023-09-08T00:59:05;6.00;;;4.22;;
23745;SDS011;12053;48.878;9.632;2023-09-08T01:01:34;6.32;;;5.25;;
23745;SDS011;12053;48.878;9.632;2023-09-08T01:04:01;6.10;;;5.00;;
23745;SDS011;12053;48.878;9.632;2023-09-08T01:06:29;5.75;;;4.72;;
23745;SDS011;12053;48.878;9.632;2023-09-08T01:08:59;6.05;;;4.82;;
23745;SDS011;12053;48.878;9.632;2023-09-08T01:11:27;6.45;;;5.03;;
23745;SDS011;12053;48.878;9.632;2023-09-08T01:13:56;5.78;;;4.95;;
23745;SDS011;12053;48.878;9.632;2023-09-08T01:16:23;6.35;;;4.85;;
23745;SDS011;12053;48.878;9.632;2023-09-08T01:18:50;6.15;;;5.10;;
23745;SDS011;12053;48.878;9.632;2023-09-08T01:26:51;7.25;;;4.93;;
23745;SDS011;12053;48.878;9.632;2023-09-08T01:29:19;6.47;;;4.45;;
23745;SDS011;12053;48.878;9.632;2023-09-08T01:31:49;5.10;;;4.57;;
23745;SDS011;12053;48.878;9.632;2023-09-08T01:34:17;6.20;;;4.65;;
23745;SDS011;12053;48.878;9.632;2023-09-08T01:36:45;5.70;;;4.68;;
23745;SDS011;12053;48.878;9.632;2023-09-08T01:39:12;6.35;;;4.65;;
23745;SDS011;12053;48.878;9.632;2023-09-08T01:41:39;6.45;;;4.63;;
23745;SDS011;12053;48.878;9.632;2023-09-08T01:44:07;9.80;;;4.70;;
23745;SDS011;12053;48.878;9.632;2023-09-08T01:46:36;4.90;;;4.25;;
23745;SDS011;12053;48.878;9.632;2023-09-08T01:49:05;7.50;;;5.00;;
23745;SDS011;12053;48.878;9.632;2023-09-08T01:51:32;6.05;;;4.78;;
23745;SDS011;12053;48.878;9.632;2023-09-08T01:53:59;9.93;;;4.78;;
23745;SDS011;12053;48.878;9.632;2023-09-08T01:56:26;5.20;;;4.60;;
23745;SDS011;12053;48.878;9.632;2023-09-08T01:58:53;6.00;;;5.25;;
23745;SDS011;12053;48.878;9.632;2023-09-08T02:01:20;6.43;;;5.00;;
23745;SDS011;12053;48.878;9.632;2023-09-08T02:03:48;5.22;;;4.35;;
23745;SDS011;12053;48.878;9.632;2023-09-08T02:06:15;6.50;;;4.80;;
23745;SDS011;12053;48.878;9.632;2023-09-08T02:08:42;5.63;;;5.03;;
23745;SDS011;12053;48.878;9.632;2023-09-08T02:11:09;5.20;;;4.70;;
23745;SDS011;12053;48.878;9.632;2023-09-08T02:13:36;7.72;;;5.05;;
23745;SDS011;12053;48.878;9.632;2023-09-08T02:16:04;6.10;;;5.03;;
23745;SDS011;12053;48.878;9.632;2023-09-08T02:18:31;8.07;;;4.65;;
23745;SDS011;12053;48.878;9.632;2023-09-08T02:20:59;7.25;;;5.32;;
23745;SDS011;12053;48.878;9.632;2023-09-08T02:23:26;7.43;;;5.40;;
23745;SDS011;12053;48.878;9.632;2023-09-08T02:25:53;6.93;;;5.53;;
23745;SDS011;12053;48.878;9.632;2023-09-08T02:28:20;6.05;;;5.45;;
23745;SDS011;12053;48.878;9.632;2023-09-08T02:30:47;6.03;;;5.18;;
23745;SDS011;12053;48.878;9.632;2023-09-08T02:33:15;5.80;;;5.03;;
23745;SDS011;12053;48.878;9.632;2023-09-08T02:35:42;6.50;;;5.03;;
23745;SDS011;12053;48.878;9.632;2023-09-08T02:38:10;7.72;;;5.30;;
23745;SDS011;12053;48.878;9.632;2023-09-08T02:40:37;9.15;;;5.85;;
23745;SDS011;12053;48.878;9.632;2023-09-08T02:43:04;7.55;;;5.60;;
23745;SDS011;12053;48.878;9.632;2023-09-08T02:45:31;9.23;;;6.00;;
23745;SDS011;12053;48.878;9.632;2023-09-08T02:48:01;7.72;;;6.18;;
23745;SDS011;12053;48.878;9.632;2023-09-08T02:50:29;5.93;;;5.32;;
23745;SDS011;12053;48.878;9.632;2023-09-08T02:52:56;6.18;;;5.40;;
23745;SDS011;12053;48.878;9.632;2023-09-08T02:55:24;7.97;;;5.78;;
23745;SDS011;12053;48.878;9.632;2023-09-08T02:57:51;7.15;;;5.70;;
23745;SDS011;12053;48.878;9.632;2023-09-08T03:00:19;9.55;;;6.30;;
23745;SDS011;12053;48.878;9.632;2023-09-08T03:02:46;6.07;;;5.00;;
23745;SDS011;12053;48.878;9.632;2023-09-08T03:05:14;7.07;;;6.00;;
23745;SDS011;12053;48.878;9.632;2023-09-08T03:07:41;7.32;;;5.75;;
23745;SDS011;12053;48.878;9.632;2023-09-08T03:10:08;8.38;;;5.97;;
23745;SDS011;12053;48.878;9.632;2023-09-08T03:12:36;7.63;;;5.75;;
23745;SDS011;12053;48.878;9.632;2023-09-08T03:15:04;7.95;;;5.75;;
23745;SDS011;12053;48.878;9.632;2023-09-08T03:17:31;8.90;;;6.30;;
23745;SDS011;12053;48.878;9.632;2023-09-08T03:19:58;16.80;;;10.10;;
23745;SDS011;12053;48.878;9.632;2023-09-08T03:22:25;105.53;;;47.60;;
23745;SDS011;12053;48.878;9.632;2023-09-08T03:24:53;78.32;;;40.45;;
23745;SDS011;12053;48.878;9.632;2023-09-08T03:27:20;44.30;;;23.02;;
23745;SDS011;12053;48.878;9.632;2023-09-08T03:29:47;16.88;;;9.73;;
23745;SDS011;12053;48.878;9.632;2023-09-08T03:32:14;9.75;;;5.97;;
23745;SDS011;12053;48.878;9.632;2023-09-08T03:34:42;8.02;;;6.18;;
23745;SDS011;12053;48.878;9.632;2023-09-08T03:37:09;8.50;;;6.60;;
23745;SDS011;12053;48.878;9.632;2023-09-08T03:39:36;7.45;;;6.65;;
23745;SDS011;12053;48.878;9.632;2023-09-08T03:42:03;7.90;;;6.38;;
23745;SDS011;12053;48.878;9.632;2023-09-08T03:44:30;6.88;;;6.18;;
23745;SDS011;12053;48.878;9.632;2023-09-08T03:46:57;6.90;;;6.05;;
23745;SDS011;12053;48.878;9.632;2023-09-08T03:49:29;7.80;;;6.28;;
23745;SDS011;12053;48.878;9.632;2023-09-08T03:51:56;6.93;;;6.05;;
23745;SDS011;12053;48.878;9.632;2023-09-08T03:54:24;7.45;;;6.57;;
23745;SDS011;12053;48.878;9.632;2023-09-08T03:56:51;6.72;;;6.00;;
23745;SDS011;12053;48.878;9.632;2023-09-08T03:59:18;12.43;;;6.30;;
23745;SDS011;12053;48.878;9.632;2023-09-08T04:01:46;7.13;;;6.43;;
23745;SDS011;12053;48.878;9.632;2023-09-08T04:04:13;6.93;;;6.18;;
23745;SDS011;12053;48.878;9.632;2023-09-08T04:06:41;7.45;;;6.18;;
23745;SDS011;12053;48.878;9.632;2023-09-08T04:09:08;6.18;;;5.50;;
23745;SDS011;12053;48.878;9.632;2023-09-08T04:11:35;7.75;;;6.10;;
23745;SDS011;12053;48.878;9.632;2023-09-08T04:14:02;7.72;;;6.32;;
23745;SDS011;12053;48.878;9.632;2023-09-08T04:16:29;7.13;;;5.93;;
23745;SDS011;12053;48.878;9.632;2023-09-08T04:18:57;9.20;;;6.07;;
23745;SDS011;12053;48.878;9.632;2023-09-08T04:21:24;8.73;;;5.93;;
23745;SDS011;12053;48.878;9.632;2023-09-08T04:23:51;11.18;;;6.00;;
23745;SDS011;12053;48.878;9.632;2023-09-08T04:26:21;8.52;;;6.20;;
23745;SDS011;12053;48.878;9.632;2023-09-08T04:28:48;9.60;;;6.20;;
23745;SDS011;12053;48.878;9.632;2023-09-08T04:31:16;10.88;;;7.15;;
23745;SDS011;12053;48.878;9.632;2023-09-08T04:33:45;9.10;;;6.80;;
23745;SDS011;12053;48.878;9.632;2023-09-08T04:36:12;11.82;;;5.82;;
23745;SDS011;12053;48.878;9.632;2023-09-08T04:38:39;9.88;;;6.38;;
23745;SDS011;12053;48.878;9.632;2023-09-08T04:41:07;8.00;;;6.18;;
23745;SDS011;12053;48.878;9.632;2023-09-08T04:43:35;7.65;;;6.30;;
23745;SDS011;12053;48.878;9.632;2023-09-08T04:46:02;8.05;;;6.65;;
23745;SDS011;12053;48.878;9.632;2023-09-08T04:48:30;8.05;;;6.45;;
23745;SDS011;12053;48.878;9.632;2023-09-08T04:50:57;10.40;;;6.40;;
23745;SDS011;12053;48.878;9.632;2023-09-08T04:53:24;8.70;;;5.88;;
23745;SDS011;12053;48.878;9.632;2023-09-08T04:55:51;6.95;;;6.28;;
23745;SDS011;12053;48.878;9.632;2023-09-08T04:58:18;10.15;;;6.72;;
23745;SDS011;12053;48.878;9.632;2023-09-08T05:00:46;7.53;;;6.50;;
23745;SDS011;12053;48.878;9.632;2023-09-08T05:03:13;9.60;;;6.82;;
23745;SDS011;12053;48.878;9.632;2023-09-08T05:05:41;9.85;;;6.25;;
23745;SDS011;12053;48.878;9.632;2023-09-08T05:08:08;6.93;;;5.95;;
23745;SDS011;12053;48.878;9.632;2023-09-08T05:10:35;7.35;;;6.13;;
23745;SDS011;12053;48.878;9.632;2023-09-08T05:13:02;10.07;;;6.10;;
23745;SDS011;12053;48.878;9.632;2023-09-08T05:15:39;11.75;;;6.20;;
23745;SDS011;12053;48.878;9.632;2023-09-08T05:18:08;8.02;;;5.95;;
23745;SDS011;12053;48.878;9.632;2023-09-08T05:20:36;7.10;;;6.10;;
23745;SDS011;12053;48.878;9.632;2023-09-08T05:23:03;9.73;;;6.38;;
23745;SDS011;12053;48.878;9.632;2023-09-08T05:25:30;9.90;;;6.45;;
23745;SDS011;12053;48.878;9.632;2023-09-08T05:27:57;6.57;;;5.88;;
23745;SDS011;12053;48.878;9.632;2023-09-08T05:30:24;8.88;;;5.63;;
23745;SDS011;12053;48.878;9.632;2023-09-08T05:32:51;7.85;;;5.68;;
23745;SDS011;12053;48.878;9.632;2023-09-08T05:35:19;7.35;;;5.82;;
23745;SDS011;12053;48.878;9.632;2023-09-08T05:37:46;6.78;;;5.57;;
23745;SDS011;12053;48.878;9.632;2023-09-08T05:40:14;6.97;;;5.50;;
23745;SDS011;12053;48.878;9.632;2023-09-08T05:42:41;6.22;;;5.13;;
23745;SDS011;12053;48.878;9.632;2023-09-08T05:45:10;7.60;;;5.32;;
23745;SDS011;12053;48.878;9.632;2023-09-08T05:47:38;6.25;;;5.05;;
23745;SDS011;12053;48.878;9.632;2023-09-08T05:50:05;10.65;;;5.63;;
23745;SDS011;12053;48.878;9.632;2023-09-08T05:52:32;8.57;;;4.65;;
23745;SDS011;12053;48.878;9.632;2023-09-08T05:54:59;8.20;;;5.80;;
23745;SDS011;12053;48.878;9.632;2023-09-08T05:57:29;9.18;;;5.30;;
23745;SDS011;12053;48.878;9.632;2023-09-08T05:59:56;9.23;;;5.18;;
23745;SDS011;12053;48.878;9.632;2023-09-08T06:02:24;5.30;;;4.80;;
23745;SDS011;12053;48.878;9.632;2023-09-08T06:04:51;8.38;;;4.82;;
23745;SDS011;12053;48.878;9.632;2023-09-08T06:07:19;6.57;;;4.68;;
23745;SDS011;12053;48.878;9.632;2023-09-08T06:09:46;10.38;;;5.20;;
23745;SDS011;12053;48.878;9.632;2023-09-08T06:12:13;6.22;;;4.70;;
23745;SDS011;12053;48.878;9.632;2023-09-08T06:14:40;5.28;;;4.78;;
23745;SDS011;12053;48.878;9.632;2023-09-08T06:17:09;8.55;;;5.13;;
23745;SDS011;12053;48.878;9.632;2023-09-08T06:19:36;9.00;;;4.90;;
23745;SDS011;12053;48.878;9.632;2023-09-08T06:22:04;6.20;;;4.97;;
23745;SDS011;12053;48.878;9.632;2023-09-08T06:24:31;6.45;;;4.63;;
23745;SDS011;12053;48.878;9.632;2023-09-08T06:26:58;9.48;;;4.82;;
23745;SDS011;12053;48.878;9.632;2023-09-08T06:29:25;5.97;;;5.18;;
23745;SDS011;12053;48.878;9.632;2023-09-08T06:31:52;6.72;;;4.78;;
23745;SDS011;12053;48.878;9.632;2023-09-08T06:34:20;6.28;;;4.45;;
23745;SDS011;12053;48.878;9.632;2023-09-08T06:36:49;10.32;;;4.65;;
23745;SDS011;12053;48.878;9.632;2023-09-08T06:39:16;4.80;;;4.13;;
23745;SDS011;12053;48.878;9.632;2023-09-08T06:41:43;7.53;;;4.65;;
23745;SDS011;12053;48.878;9.632;2023-09-08T06:44:10;5.05;;;4.20;;
23745;SDS011;12053;48.878;9.632;2023-09-08T06:46:38;10.80;;;4.65;;
23745;SDS011;12053;48.878;9.632;2023-09-08T06:49:05;6.80;;;5.15;;
23745;SDS011;12053;48.878;9.632;2023-09-08T06:51:35;7.22;;;4.50;;
23745;SDS011;12053;48.878;9.632;2023-09-08T06:54:08;8.82;;;5.03;;
23745;SDS011;12053;48.878;9.632;2023-09-08T06:56:35;6.88;;;4.60;;
23745;SDS011;12053;48.878;9.632;2023-09-08T06:59:03;10.68;;;4.53;;
23745;SDS011;12053;48.878;9.632;2023-09-08T07:01:30;8.52;;;4.50;;
23745;SDS011;12053;48.878;9.632;2023-09-08T07:03:58;8.90;;;4.93;;
23745;SDS011;12053;48.878;9.632;2023-09-08T07:06:26;6.90;;;4.80;;
23745;SDS011;12053;48.878;9.632;2023-09-08T07:08:53;6.50;;;4.72;;
23745;SDS011;12053;48.878;9.632;2023-09-08T07:11:20;6.30;;;4.53;;
23745;SDS011;12053;48.878;9.632;2023-09-08T07:13:47;6.13;;;4.53;;
23745;SDS011;12053;48.878;9.632;2023-09-08T07:16:14;6.50;;;4.20;;
23745;SDS011;12053;48.878;9.632;2023-09-08T07:18:42;6.32;;;4.60;;
23745;SDS011;12053;48.878;9.632;2023-09-08T07:21:09;5.93;;;4.72;;
23745;SDS011;12053;48.878;9.632;2023-09-08T07:23:37;4.40;;;4.00;;
23745;SDS011;12053;48.878;9.632;2023-09-08T07:26:04;6.32;;;4.47;;
23745;SDS011;12053;48.878;9.632;2023-09-08T07:28:32;5.68;;;4.45;;
23745;SDS011;12053;48.878;9.632;2023-09-08T07:31:01;6.50;;;4.22;;
23745;SDS011;12053;48.878;9.632;2023-09-08T07:33:29;6.80;;;4.32;;
23745;SDS011;12053;48.878;9.632;2023-09-08T07:35:56;4.85;;;4.45;;
23745;SDS011;12053;48.878;9.632;2023-09-08T07:38:23;4.57;;;4.18;;
23745;SDS011;12053;48.878;9.632;2023-09-08T07:40:51;5.97;;;4.30;;
23745;SDS011;12053;48.878;9.632;2023-09-08T07:43:18;5.90;;;4.53;;
23745;SDS011;12053;48.878;9.632;2023-09-08T07:45:45;8.48;;;4.65;;
23745;SDS011;12053;48.878;9.632;2023-09-08T07:48:13;5.30;;;4.68;;
23745;SDS011;12053;48.878;9.632;2023-09-08T07:50:40;5.70;;;4.45;;
23745;SDS011;12053;48.878;9.632;2023-09-08T07:53:09;8.30;;;4.70;;
23745;SDS011;12053;48.878;9.632;2023-09-08T07:55:36;5.70;;;4.75;;
23745;SDS011;12053;48.878;9.632;2023-09-08T07:58:04;7.82;;;4.40;;
23745;SDS011;12053;48.878;9.632;2023-09-08T08:00:32;7.05;;;4.65;;
23745;SDS011;12053;48.878;9.632;2023-09-08T08:02:59;6.88;;;4.80;;
23745;SDS011;12053;48.878;9.632;2023-09-08T08:05:26;5.93;;;4.75;;
23745;SDS011;12053;48.878;9.632;2023-09-08T08:07:54;5.47;;;4.78;;
23745;SDS011;12053;48.878;9.632;2023-09-08T08:10:21;7.28;;;5.00;;
23745;SDS011;12053;48.878;9.632;2023-09-08T08:12:48;7.40;;;4.68;;
23745;SDS011;12053;48.878;9.632;2023-09-08T08:15:15;6.80;;;5.13;;
23745;SDS011;12053;48.878;9.632;2023-09-08T08:17:43;9.50;;;5.25;;
23745;SDS011;12053;48.878;9.632;2023-09-08T08:20:10;6.07;;;4.80;;
23745;SDS011;12053;48.878;9.632;2023-09-08T08:22:44;6.78;;;4.93;;
23745;SDS011;12053;48.878;9.632;2023-09-08T08:25:11;5.85;;;4.97;;
23745;SDS011;12053;48.878;9.632;2023-09-08T08:27:39;9.00;;;5.88;;
23745;SDS011;12053;48.878;9.632;2023-09-08T08:30:07;8.80;;;5.00;;
23745;SDS011;12053;48.878;9.632;2023-09-08T08:32:34;9.13;;;5.22;;
23745;SDS011;12053;48.878;9.632;2023-09-08T08:35:01;7.72;;;5.15;;
23745;SDS011;12053;48.878;9.632;2023-09-08T08:37:30;7.70;;;5.22;;
23745;SDS011;12053;48.878;9.632;2023-09-08T08:39:58;7.35;;;5.57;;
23745;SDS011;12053;48.878;9.632;2023-09-08T08:42:30;6.32;;;4.78;;
23745;SDS011;12053;48.878;9.632;2023-09-08T08:44:58;7.13;;;5.15;;
23745;SDS011;12053;48.878;9.632;2023-09-08T08:47:27;7.53;;;4.80;;
23745;SDS011;12053;48.878;9.632;2023-09-08T08:49:56;7.38;;;5.07;;
23745;SDS011;12053;48.878;9.632;2023-09-08T08:52:28;8.35;;;4.85;;
23745;SDS011;12053;48.878;9.632;2023-09-08T08:54:55;7.22;;;4.82;;
23745;SDS011;12053;48.878;9.632;2023-09-08T08:57:23;8.18;;;4.70;;
23745;SDS011;12053;48.878;9.632;2023-09-08T08:59:50;5.80;;;5.20;;
23745;SDS011;12053;48.878;9.632;2023-09-08T09:02:21;6.22;;;4.78;;
23745;SDS011;12053;48.878;9.632;2023-09-08T09:04:49;6.18;;;5.15;;
23745;SDS011;12053;48.878;9.632;2023-09-08T09:07:16;8.43;;;5.07;;
23745;SDS011;12053;48.878;9.632;2023-09-08T09:09:45;7.00;;;4.88;;
23745;SDS011;12053;48.878;9.632;2023-09-08T09:12:12;6.72;;;4.80;;
23745;SDS011;12053;48.878;9.632;2023-09-08T09:14:44;5.70;;;5.07;;
23745;SDS011;12053;48.878;9.632;2023-09-08T09:17:13;8.93;;;4.93;;
23745;SDS011;12053;48.878;9.632;2023-09-08T09:19:40;6.93;;;5.18;;
23745;SDS011;12053;48.878;9.632;2023-09-08T09:22:08;6.63;;;4.63;;
23745;SDS011;12053;48.878;9.632;2023-09-08T09:24:39;7.38;;;4.90;;
23745;SDS011;12053;48.878;9.632;2023-09-08T09:27:13;6.00;;;4.75;;
23745;SDS011;12053;48.878;9.632;2023-09-08T09:29:44;7.40;;;4.75;;
23745;SDS011;12053;48.878;9.632;2023-09-08T09:32:12;9.07;;;5.28;;
23745;SDS011;12053;48.878;9.632;2023-09-08T09:34:50;5.20;;;4.47;;
23745;SDS011;12053;48.878;9.632;2023-09-08T09:37:19;8.23;;;4.97;;
23745;SDS011;12053;48.878;9.632;2023-09-08T09:39:51;7.57;;;4.78;;
23745;SDS011;12053;48.878;9.632;2023-09-08T09:42:19;7.75;;;5.05;;
23745;SDS011;12053;48.878;9.632;2023-09-08T09:44:47;5.75;;;4.43;;
23745;SDS011;12053;48.878;9.632;2023-09-08T09:47:15;11.15;;;4.60;;
23745;SDS011;12053;48.878;9.632;2023-09-08T09:49:43;5.63;;;4.68;;
23745;SDS011;12053;48.878;9.632;2023-09-08T09:52:14;5.90;;;4.47;;
23745;SDS011;12053;48.878;9.632;2023-09-08T09:54:46;7.95;;;4.88;;
23745;SDS011;12053;48.878;9.632;2023-09-08T09:57:17;8.13;;;4.60;;
23745;SDS011;12053;48.878;9.632;2023-09-08T09:59:46;8.82;;;5.13;;
23745;SDS011;12053;48.878;9.632;2023-09-08T10:02:17;7.97;;;4.68;;
23745;SDS011;12053;48.878;9.632;2023-09-08T10:04:49;5.50;;;4.93;;
23745;SDS011;12053;48.878;9.632;2023-09-08T10:07:17;5.40;;;4.30;;
23745;SDS011;12053;48.878;9.632;2023-09-08T10:09:44;4.60;;;4.20;;
23745;SDS011;12053;48.878;9.632;2023-09-08T10:12:13;5.25;;;4.53;;
23745;SDS011;12053;48.878;9.632;2023-09-08T10:14:42;5.85;;;4.90;;
23745;SDS011;12053;48.878;9.632;2023-09-08T10:17:11;9.68;;;5.32;;
23745;SDS011;12053;48.878;9.632;2023-09-08T10:19:40;4.85;;;4.30;;
23745;SDS011;12053;48.878;9.632;2023-09-08T10:22:13;5.47;;;4.63;;
23745;SDS011;12053;48.878;9.632;2023-09-08T10:24:42;5.10;;;4.60;;
23745;SDS011;12053;48.878;9.632;2023-09-08T10:27:11;8.45;;;5.30;;
23745;SDS011;12053;48.878;9.632;2023-09-08T10:29:39;4.95;;;4.43;;
23745;SDS011;12053;48.878;9.632;2023-09-08T10:32:08;7.90;;;4.80;;
23745;SDS011;12053;48.878;9.632;2023-09-08T10:34:36;6.00;;;4.50;;
23745;SDS011;12053;48.878;9.632;2023-09-08T10:37:17;9.23;;;5.22;;
23745;SDS011;12053;48.878;9.632;2023-09-08T10:39:45;9.63;;;5.00;;
23745;SDS011;12053;48.878;9.632;2023-09-08T10:47:22;6.22;;;5.05;;
23745;SDS011;12053;48.878;9.632;2023-09-08T10:49:50;6.03;;;4.75;;
23745;SDS011;12053;48.878;9.632;2023-09-08T10:52:23;5.32;;;4.82;;
23745;SDS011;12053;48.878;9.632;2023-09-08T10:54:51;8.15;;;4.25;;
23745;SDS011;12053;48.878;9.632;2023-09-08T10:57:25;5.00;;;4.22;;
23745;SDS011;12053;48.878;9.632;2023-09-08T11:02:39;5.30;;;4.90;;
23745;SDS011;12053;48.878;9.632;2023-09-08T11:05:14;5.47;;;4.93;;
23745;SDS011;12053;48.878;9.632;2023-09-08T11:07:43;8.77;;;4.85;;
23745;SDS011;12053;48.878;9.632;2023-09-08T11:10:11;7.25;;;5.00;;
23745;SDS011;12053;48.878;9.632;2023-09-08T11:12:39;7.65;;;5.00;;
23745;SDS011;12053;48.878;9.632;2023-09-08T11:15:06;8.40;;;4.93;;
23745;SDS011;12053;48.878;9.632;2023-09-08T11:17:35;5.78;;;4.60;;
23745;SDS011;12053;48.878;9.632;2023-09-08T11:20:06;5.05;;;4.60;;
23745;SDS011;12053;48.878;9.632;2023-09-08T11:22:35;5.05;;;4.55;;
23745;SDS011;12053;48.878;9.632;2023-09-08T11:25:03;5.05;;;4.55;;
23745;SDS011;12053;48.878;9.632;2023-09-08T11:27:30;5.47;;;4.72;;
23745;SDS011;12053;48.878;9.632;2023-09-08T11:29:58;4.75;;;4.35;;
23745;SDS011;12053;48.878;9.632;2023-09-08T11:32:31;6.50;;;4.80;;
23745;SDS011;12053;48.878;9.632;2023-09-08T11:35:05;5.72;;;5.07;;
23745;SDS011;12053;48.878;9.632;2023-09-08T11:37:36;6.25;;;4.68;;
23745;SDS011;12053;48.878;9.632;2023-09-08T11:40:08;5.50;;;4.70;;
23745;SDS011;12053;48.878;9.632;2023-09-08T11:42:36;5.28;;;4.78;;
23745;SDS011;12053;48.878;9.632;2023-09-08T11:45:03;6.68;;;5.10;;
23745;SDS011;12053;48.878;9.632;2023-09-08T11:47:30;6.18;;;5.05;;
23745;SDS011;12053;48.878;9.632;2023-09-08T11:49:58;6.95;;;4.95;;
23745;SDS011;12053;48.878;9.632;2023-09-08T11:52:25;5.57;;;4.60;;
23745;SDS011;12053;48.878;9.632;2023-09-08T11:54:52;6.20;;;4.90;;
23745;SDS011;12053;48.878;9.632;2023-09-08T11:57:32;5.47;;;4.68;;
23745;SDS011;12053;48.878;9.632;2023-09-08T12:00:00;8.77;;;5.05;;
23745;SDS011;12053;48.878;9.632;2023-09-08T12:02:37;7.30;;;5.15;;
23745;SDS011;12053;48.878;9.632;2023-09-08T12:05:04;7.40;;;5.30;;
23745;SDS011;12053;48.878;9.632;2023-09-08T12:07:32;7.63;;;4.78;;
23745;SDS011;12053;48.878;9.632;2023-09-08T12:09:59;6.57;;;4.50;;
23745;SDS011;12053;48.878;9.632;2023-09-08T12:12:33;5.63;;;4.35;;
23745;SDS011;12053;48.878;9.632;2023-09-08T12:15:00;5.45;;;4.95;;
23745;SDS011;12053;48.878;9.632;2023-09-08T12:17:27;5.10;;;4.35;;
23745;SDS011;12053;48.878;9.632;2023-09-08T12:19:54;5.30;;;4.55;;
23745;SDS011;12053;48.878;9.632;2023-09-08T12:22:22;6.20;;;4.70;;
23745;SDS011;12053;48.878;9.632;2023-09-08T12:27:23;6.40;;;4.32;;
23745;SDS011;12053;48.878;9.632;2023-09-08T12:30:00;6.63;;;4.35;;
23745;SDS011;12053;48.878;9.632;2023-09-08T12:32:30;6.03;;;4.60;;
23745;SDS011;12053;48.878;9.632;2023-09-08T12:34:58;5.68;;;4.50;;
23745;SDS011;12053;48.878;9.632;2023-09-08T12:37:27;5.72;;;4.30;;
23745;SDS011;12053;48.878;9.632;2023-09-08T12:39:55;10.60;;;4.82;;
23745;SDS011;12053;48.878;9.632;2023-09-08T12:42:23;12.70;;;5.05;;
23745;SDS011;12053;48.878;9.632;2023-09-08T12:44:52;6.03;;;4.53;;
23745;SDS011;12053;48.878;9.632;2023-09-08T12:47:20;4.90;;;4.40;;
23745;SDS011;12053;48.878;9.632;2023-09-08T12:49:47;4.72;;;4.32;;
23745;SDS011;12053;48.878;9.632;2023-09-08T12:52:14;4.47;;;4.07;;
23745;SDS011;12053;48.878;9.632;2023-09-08T12:54:41;5.72;;;4.22;;
23745;SDS011;12053;48.878;9.632;2023-09-08T12:57:09;4.63;;;4.13;;
23745;SDS011;12053;48.878;9.632;2023-09-08T12:59:36;4.47;;;4.07;;
23745;SDS011;12053;48.878;9.632;2023-09-08T13:02:03;5.43;;;3.90;;
23745;SDS011;12053;48.878;9.632;2023-09-08T13:04:30;6.07;;;4.10;;
23745;SDS011;12053;48.878;9.632;2023-09-08T13:06:57;4.90;;;4.25;;
23745;SDS011;12053;48.878;9.632;2023-09-08T13:09:27;4.95;;;4.45;;
23745;SDS011;12053;48.878;9.632;2023-09-08T13:11:54;4.40;;;4.07;;
23745;SDS011;12053;48.878;9.632;2023-09-08T13:14:22;5.97;;;4.22;;
23745;SDS011;12053;48.878;9.632;2023-09-08T13:16:49;5.15;;;3.97;;
23745;SDS011;12053;48.878;9.632;2023-09-08T13:19:16;4.28;;;3.88;;
23745;SDS011;12053;48.878;9.632;2023-09-08T13:21:43;4.95;;;4.32;;
23745;SDS011;12053;48.878;9.632;2023-09-08T13:24:10;8.77;;;5.57;;
23745;SDS011;12053;48.878;9.632;2023-09-08T13:26:38;5.35;;;4.53;;
23745;SDS011;12053;48.878;9.632;2023-09-08T13:29:07;5.32;;;4.30;;
23745;SDS011;12053;48.878;9.632;2023-09-08T13:31:34;5.43;;;3.83;;
23745;SDS011;12053;48.878;9.632;2023-09-08T13:34:02;5.72;;;3.50;;
23745;SDS011;12053;48.878;9.632;2023-09-08T13:36:29;4.78;;;4.28;;
23745;SDS011;12053;48.878;9.632;2023-09-08T13:38:56;4.82;;;4.00;;
23745;SDS011;12053;48.878;9.632;2023-09-08T13:41:24;5.00;;;4.05;;
23745;SDS011;12053;48.878;9.632;2023-09-08T13:43:51;4.55;;;3.90;;
23745;SDS011;12053;48.878;9.632;2023-09-08T13:46:19;5.30;;;3.90;;
23745;SDS011;12053;48.878;9.632;2023-09-08T13:48:47;5.28;;;4.30;;
23745;SDS011;12053;48.878;9.632;2023-09-08T13:51:15;6.18;;;4.40;;
23745;SDS011;12053;48.878;9.632;2023-09-08T13:53:47;4.25;;;3.85;;
23745;SDS011;12053;48.878;9.632;2023-09-08T13:56:15;6.28;;;4.28;;
23745;SDS011;12053;48.878;9.632;2023-09-08T13:58:46;7.68;;;4.57;;
23745;SDS011;12053;48.878;9.632;2023-09-08T14:01:17;4.82;;;4.25;;
23745;SDS011;12053;48.878;9.632;2023-09-08T14:03:46;5.68;;;4.07;;
23745;SDS011;12053;48.878;9.632;2023-09-08T14:08:47;8.63;;;4.72;;
23745;SDS011;12053;48.878;9.632;2023-09-08T14:11:36;4.90;;;4.50;;
23745;SDS011;12053;48.878;9.632;2023-09-08T14:14:06;7.07;;;4.40;;
23745;SDS011;12053;48.878;9.632;2023-09-08T14:16:34;4.25;;;3.85;;
23745;SDS011;12053;48.878;9.632;2023-09-08T14:19:01;5.40;;;4.18;;
23745;SDS011;12053;48.878;9.632;2023-09-08T14:21:28;7.18;;;4.75;;
23745;SDS011;12053;48.878;9.632;2023-09-08T14:23:56;7.50;;;4.40;;
23745;SDS011;12053;48.878;9.632;2023-09-08T14:26:23;5.82;;;4.47;;
23745;SDS011;12053;48.878;9.632;2023-09-08T14:28:52;5.70;;;4.60;;
23745;SDS011;12053;48.878;9.632;2023-09-08T14:31:19;5.82;;;4.55;;
23745;SDS011;12053;48.878;9.632;2023-09-08T14:33:47;6.03;;;4.32;;
23745;SDS011;12053;48.878;9.632;2023-09-08T14:36:17;6.35;;;4.80;;
23745;SDS011;12053;48.878;9.632;2023-09-08T14:38:45;6.50;;;4.43;;
23745;SDS011;12053;48.878;9.632;2023-09-08T14:41:12;7.47;;;4.63;;
23745;SDS011;12053;48.878;9.632;2023-09-08T14:43:40;4.82;;;4.32;;
23745;SDS011;12053;48.878;9.632;2023-09-08T14:46:08;6.15;;;4.20;;
23745;SDS011;12053;48.878;9.632;2023-09-08T14:48:35;5.43;;;4.05;;
23745;SDS011;12053;48.878;9.632;2023-09-08T14:51:02;5.88;;;4.47;;
23745;SDS011;12053;48.878;9.632;2023-09-08T14:53:30;8.45;;;4.47;;
23745;SDS011;12053;48.878;9.632;2023-09-08T14:55:58;5.43;;;4.82;;
23745;SDS011;12053;48.878;9.632;2023-09-08T14:58:25;6.40;;;4.65;;
23745;SDS011;12053;48.878;9.632;2023-09-08T15:00:58;4.78;;;4.28;;
23745;SDS011;12053;48.878;9.632;2023-09-08T15:03:33;6.82;;;4.47;;
23745;SDS011;12053;48.878;9.632;2023-09-08T15:06:01;5.27;;;4.37;;
23745;SDS011;12053;48.878;9.632;2023-09-08T15:08:28;4.45;;;4.05;;